Time;durP1;ratioP1;P1;durP2;ratioP2;P2;SDS_P1;SDS_P2;PMS_P1;PMS_P2;Temp;Humidity;BMP_temperature;BMP_pressure;BME280_temperature;BME280_humidity;BME280_pressure;Samples;Min_cycle;Max_cycle;Signal;HPM_P1;HPM_P2
2023/01/24 00:00:06;;;;;;;6.38;4.45;;;6.30;99.90;;;;;;5055612;28;20032;-51
2023/01/24 00:02:32;;;;;;;7.10;6.25;;;6.30;99.90;;;;;;5069440;28;20037;-49
2023/01/24 00:04:58;;;;;;;6.60;5.03;;;6.30;99.90;;;;;;5053379;28;20480;-51
2023/01/24 00:07:24;;;;;;;6.75;5.43;;;6.10;99.90;;;;;;5053192;28;20056;-50
2023/01/24 00:09:49;;;;;;;7.03;5.20;;;6.10;99.90;;;;;;5053300;28;20378;-49
2023/01/24 00:12:15;;;;;;;6.63;5.18;;;6.10;99.90;;;;;;5052909;28;20035;-50
2023/01/24 00:14:41;;;;;;;9.20;6.40;;;6.10;99.90;;;;;;5052990;28;20033;-51
2023/01/24 00:17:07;;;;;;;9.13;6.18;;;6.10;99.90;;;;;;5053139;28;20171;-49
2023/01/24 00:19:34;;;;;;;7.70;5.88;;;6.00;99.90;;;;;;5052935;28;20055;-51
2023/01/24 00:22:03;;;;;;;9.68;6.22;;;6.00;99.90;;;;;;5053105;28;20040;-50
2023/01/24 00:24:32;;;;;;;9.02;6.30;;;6.00;99.90;;;;;;5052922;28;20064;-50
2023/01/24 00:26:58;;;;;;;9.23;6.55;;;6.00;99.90;;;;;;5036754;28;20141;-51
2023/01/24 00:29:24;;;;;;;7.38;4.28;;;6.00;99.90;;;;;;5053068;28;20052;-50
2023/01/24 00:31:50;;;;;;;8.52;5.13;;;5.90;99.90;;;;;;5052009;28;20138;-49
2023/01/24 00:34:15;;;;;;;8.77;5.60;;;5.80;99.90;;;;;;5052839;28;20116;-51
2023/01/24 00:36:41;;;;;;;6.93;4.93;;;5.80;99.90;;;;;;5052606;28;20029;-51
2023/01/24 00:39:08;;;;;;;8.32;5.80;;;5.90;99.90;;;;;;5053230;28;20095;-51
2023/01/24 00:41:34;;;;;;;6.70;4.68;;;5.90;99.90;;;;;;5036463;28;20044;-50
2023/01/24 00:44:00;;;;;;;6.88;5.00;;;5.90;99.90;;;;;;5055187;28;20033;-50
2023/01/24 00:46:25;;;;;;;6.50;4.65;;;5.80;99.90;;;;;;5054334;28;20027;-50
2023/01/24 00:48:51;;;;;;;6.78;5.13;;;5.80;99.90;;;;;;5054618;28;20060;-50
2023/01/24 00:51:17;;;;;;;6.63;5.07;;;5.90;99.90;;;;;;5054823;28;20032;-49
2023/01/24 00:53:42;;;;;;;5.95;4.65;;;5.90;99.90;;;;;;5035983;28;20091;-51
2023/01/24 00:56:08;;;;;;;4.97;4.00;;;5.90;99.90;;;;;;5054614;28;20025;-51
2023/01/24 00:58:34;;;;;;;5.15;4.30;;;5.80;99.90;;;;;;5035865;28;20033;-50
2023/01/24 01:01:03;;;;;;;5.80;3.30;;;5.70;99.90;;;;;;5035444;28;20128;-49
2023/01/24 01:03:29;;;;;;;3.40;2.53;;;5.70;99.90;;;;;;5054272;28;20037;-49
2023/01/24 01:06:04;;;;;;;5.30;3.55;;;5.60;99.90;;;;;;5054813;28;20036;-50
2023/01/24 01:08:29;;;;;;;4.82;3.92;;;5.60;99.90;;;;;;5002723;28;20045;-50
2023/01/24 01:10:55;;;;;;;6.00;3.80;;;5.60;99.90;;;;;;5054125;28;20079;-51
2023/01/24 01:13:21;;;;;;;4.93;3.58;;;5.80;99.90;;;;;;5054234;28;20473;-52
2023/01/24 01:15:47;;;;;;;5.63;3.65;;;5.80;99.90;;;;;;5035396;28;20044;-49
2023/01/24 01:18:12;;;;;;;6.35;4.35;;;5.80;99.90;;;;;;5035622;28;20068;-51
2023/01/24 01:20:38;;;;;;;4.85;4.00;;;5.80;99.90;;;;;;5035284;28;20041;-50
2023/01/24 01:23:04;;;;;;;6.05;4.22;;;5.80;99.90;;;;;;5035447;28;20515;-50
2023/01/24 01:25:30;;;;;;;5.10;4.30;;;5.90;99.90;;;;;;5052252;28;20115;-50
2023/01/24 01:27:56;;;;;;;5.38;4.03;;;5.90;99.90;;;;;;5035477;28;20037;-51
2023/01/24 01:30:22;;;;;;;6.43;4.10;;;5.80;99.90;;;;;;5053750;28;20025;-49
2023/01/24 01:32:47;;;;;;;5.97;4.22;;;5.70;99.90;;;;;;5053699;28;20055;-50
2023/01/24 01:35:13;;;;;;;6.75;4.88;;;5.60;99.90;;;;;;5053947;28;20024;-49
2023/01/24 01:37:39;;;;;;;6.18;4.20;;;5.60;99.90;;;;;;5035146;28;20041;-49
2023/01/24 01:40:05;;;;;;;5.95;4.40;;;5.70;99.90;;;;;;5053768;28;20074;-51
2023/01/24 01:42:53;;;;;;;6.88;5.18;;;5.60;99.90;;;;;;5035172;28;20033;-51
2023/01/24 01:45:38;;;;;;;7.97;5.25;;;5.70;99.90;;;;;;5052995;28;20029;-51
2023/01/24 01:48:36;;;;;;;6.82;4.35;;;5.60;99.90;;;;;;5031469;28;20120;-51
2023/01/24 01:51:14;;;;;;;8.40;5.05;;;5.60;99.90;;;;;;4972439;28;20075;-51
2023/01/24 01:53:55;;;;;;;7.47;5.32;;;5.60;99.90;;;;;;4972306;28;20042;-49
2023/01/24 01:56:47;;;;;;;6.40;4.40;;;5.60;99.90;;;;;;4972551;28;20078;-51
2023/01/24 01:59:20;;;;;;;9.85;6.55;;;5.60;99.90;;;;;;4972692;28;20049;-49
2023/01/24 02:01:47;;;;;;;8.68;6.03;;;5.50;99.90;;;;;;4972399;28;20057;-51
2023/01/24 02:04:28;;;;;;;14.13;9.60;;;5.50;99.90;;;;;;4972388;28;20073;-49
2023/01/24 02:07:20;;;;;;;6.90;4.72;;;5.50;99.90;;;;;;4972476;28;20387;-50
2023/01/24 02:09:48;;;;;;;6.43;5.05;;;5.40;99.90;;;;;;4974115;28;20042;-51
2023/01/24 02:12:28;;;;;;;7.38;4.95;;;5.40;99.90;;;;;;4973030;28;20129;-50
2023/01/24 02:17:44;;;;;;;6.30;4.07;;;5.50;99.90;;;;;;4973375;28;20161;-50
2023/01/24 02:20:25;;;;;;;5.75;3.80;;;5.40;99.90;;;;;;5009563;28;20108;-50
2023/01/24 02:23:18;;;;;;;6.47;4.20;;;5.40;99.90;;;;;;5011132;28;20535;-50
2023/01/24 02:25:50;;;;;;;5.00;3.60;;;5.40;99.90;;;;;;4972069;28;20076;-51
2023/01/24 02:28:16;;;;;;;;;;;5.20;99.90;;;;;;4989259;28;20398;-49
2023/01/24 02:30:41;;;;;;;4.93;2.80;;;5.30;99.90;;;;;;4991412;28;19905;-51
2023/01/24 02:33:16;;;;;;;4.78;3.83;;;5.50;99.90;;;;;;4991413;28;20046;-50
2023/01/24 02:35:43;;;;;;;6.28;4.18;;;5.50;99.90;;;;;;4975177;28;20105;-50
2023/01/24 02:38:20;;;;;;;6.97;4.22;;;5.60;99.90;;;;;;4991382;28;20590;-49
2023/01/24 02:40:49;;;;;;;5.65;4.07;;;5.60;99.90;;;;;;4991383;28;20030;-52
2023/01/24 02:43:17;;;;;;;5.93;4.40;;;5.60;99.90;;;;;;4991298;28;20050;-50
2023/01/24 02:45:43;;;;;;;5.63;3.28;;;5.60;99.90;;;;;;4991314;28;20033;-49
2023/01/24 02:48:09;;;;;;;7.53;4.32;;;5.50;99.90;;;;;;4975075;28;20034;-51
2023/01/24 02:53:31;;;;;;;5.57;4.35;;;5.50;99.90;;;;;;4991348;28;20401;-52
2023/01/24 02:58:50;;;;;;;5.68;4.20;;;5.40;99.90;;;;;;4995511;28;20100;-51
2023/01/24 03:01:17;;;;;;;4.10;3.13;;;5.60;99.90;;;;;;4978943;28;20034;-51
2023/01/24 03:03:46;;;;;;;4.45;3.30;;;5.50;99.90;;;;;;5050412;28;20043;-51
2023/01/24 03:06:14;;;;;;;3.85;2.60;;;5.60;99.90;;;;;;5072885;28;20047;-49
2023/01/24 03:08:40;;;;;;;4.68;2.95;;;5.50;99.90;;;;;;5057548;28;20033;-51
2023/01/24 03:11:06;;;;;;;4.38;3.10;;;5.40;99.90;;;;;;5074300;28;20480;-50
2023/01/24 03:35:30;;;;;;;5.45;4.07;;;5.70;99.90;;;;;;5056422;28;20044;-50
2023/01/24 03:40:40;;;;;;;6.32;4.63;;;5.80;99.90;;;;;;5055951;28;20086;-51
2023/01/24 03:43:07;;;;;;;6.50;4.43;;;5.60;99.90;;;;;;5055788;28;20036;-52
2023/01/24 03:45:35;;;;;;;5.65;4.20;;;5.60;99.90;;;;;;5055331;28;20096;-51
2023/01/24 03:48:12;;;;;;;6.05;4.45;;;5.70;99.90;;;;;;5037249;28;20037;-52
2023/01/24 03:53:27;;;;;;;6.63;4.82;;;5.80;99.90;;;;;;5056488;28;20036;-53
2023/01/24 03:55:57;;;;;;;5.72;4.40;;;5.80;99.90;;;;;;5055978;28;20029;-50
2023/01/24 03:58:24;;;;;;;4.40;3.70;;;5.60;99.90;;;;;;5004645;28;20131;-51
2023/01/24 04:00:51;;;;;;;5.30;4.25;;;5.90;99.90;;;;;;5055945;28;20033;-50
2023/01/24 04:03:17;;;;;;;5.55;3.90;;;6.00;99.90;;;;;;5055962;28;20052;-50
2023/01/24 04:05:42;;;;;;;6.03;3.67;;;5.80;99.90;;;;;;5055041;28;20029;-51
2023/01/24 04:08:08;;;;;;;4.32;3.22;;;5.60;99.90;;;;;;5054724;28;20119;-51
2023/01/24 04:10:34;;;;;;;4.07;3.17;;;5.60;99.90;;;;;;5055233;28;20063;-51
2023/01/24 04:13:00;;;;;;;4.78;3.80;;;5.40;99.90;;;;;;5020485;28;20388;-50
2023/01/24 04:15:29;;;;;;;4.70;3.63;;;5.50;99.90;;;;;;5055441;28;20112;-52
2023/01/24 04:17:56;;;;;;;5.13;3.70;;;5.70;99.90;;;;;;5055418;28;20029;-50
2023/01/24 04:20:23;;;;;;;4.90;3.58;;;5.70;99.90;;;;;;5053524;28;20124;-51
2023/01/24 04:22:48;;;;;;;7.68;6.45;;;5.80;99.90;;;;;;5055119;28;20033;-52
2023/01/24 04:25:14;;;;;;;6.32;4.50;;;5.90;99.90;;;;;;5055372;28;20052;-52
2023/01/24 04:27:40;;;;;;;4.82;3.38;;;5.70;99.90;;;;;;5054866;28;20032;-50
2023/01/24 04:30:09;;;;;;;6.18;3.92;;;5.60;99.90;;;;;;5055180;28;20036;-52
2023/01/24 04:32:35;;;;;;;4.82;3.58;;;5.40;99.90;;;;;;5036006;28;20471;-49
2023/01/24 04:35:03;;;;;;;4.65;4.13;;;5.50;99.90;;;;;;5055576;28;20036;-51
2023/01/24 04:37:29;;;;;;;4.35;3.70;;;5.40;99.90;;;;;;5055097;28;20078;-51
2023/01/24 04:39:55;;;;;;;5.13;4.20;;;5.30;99.90;;;;;;5054791;28;20021;-52
2023/01/24 04:42:21;;;;;;;4.65;3.63;;;5.20;99.90;;;;;;5054913;28;20028;-50
2023/01/24 04:44:47;;;;;;;4.32;3.00;;;5.20;99.90;;;;;;5054955;28;20041;-51
2023/01/24 04:47:12;;;;;;;3.85;2.80;;;5.40;99.90;;;;;;5054803;28;20029;-50
2023/01/24 04:49:38;;;;;;;8.80;5.80;;;5.10;99.90;;;;;;5054984;28;20033;-52
2023/01/24 04:52:05;;;;;;;10.02;7.15;;;5.10;99.90;;;;;;5054920;28;20547;-52
2023/01/24 04:54:31;;;;;;;4.70;3.80;;;;;;;;;;5036150;28;20108;-51
2023/01/24 04:56:56;;;;;;;5.93;4.53;;;5.00;99.90;;;;;;5036268;28;20044;-52
2023/01/24 04:59:22;;;;;;;5.43;4.30;;;5.10;99.90;;;;;;5036072;28;20447;-51
2023/01/24 05:01:48;;;;;;;6.13;5.10;;;5.00;99.90;;;;;;5054882;28;20025;-52
2023/01/24 05:04:14;;;;;;;5.18;3.47;;;5.00;99.90;;;;;;5054613;28;20033;-52
2023/01/24 05:06:40;;;;;;;4.63;3.00;;;5.10;99.90;;;;;;5035771;28;20056;-50
2023/01/24 05:09:06;;;;;;;4.55;2.95;;;5.10;99.90;;;;;;5054647;28;20395;-52
2023/01/24 05:11:32;;;;;;;4.13;3.15;;;;;;;;;;5035861;28;20061;-50
2023/01/24 05:13:58;;;;;;;4.50;2.17;;;5.10;99.90;;;;;;5054155;28;20060;-50
2023/01/24 05:16:24;;;;;;;3.47;2.63;;;5.10;99.90;;;;;;5054779;28;20045;-51
2023/01/24 05:18:50;;;;;;;3.92;2.70;;;5.20;99.90;;;;;;5054473;28;20100;-52
2023/01/24 05:21:16;;;;;;;3.53;2.50;;;;;;;;;;5035865;28;20552;-50
2023/01/24 05:23:43;;;;;;;4.32;3.00;;;;;;;;;;5053927;28;20040;-49
2023/01/24 05:26:09;;;;;;;2.83;2.33;;;5.60;99.90;;;;;;5068895;28;20040;-51
2023/01/24 05:28:35;;;;;;;4.30;2.95;;;5.60;99.90;;;;;;5053930;28;20025;-50
2023/01/24 05:31:02;;;;;;;3.25;2.30;;;;;;;;;;5053870;28;20112;-50
2023/01/24 05:33:28;;;;;;;3.70;2.67;;;;;;;;;;5053227;28;20049;-50
2023/01/24 05:35:58;;;;;;;3.05;2.38;;;5.50;99.90;;;;;;5053694;28;20055;-51
2023/01/24 05:38:24;;;;;;;3.90;2.75;;;5.40;99.90;;;;;;5054169;28;20032;-52
2023/01/24 05:40:50;;;;;;;3.08;2.00;;;5.50;99.90;;;;;;5053588;28;20025;-51
2023/01/24 05:43:16;;;;;;;3.22;2.00;;;5.40;99.90;;;;;;5051349;28;20123;-51
2023/01/24 05:45:42;;;;;;;2.42;1.60;;;5.40;99.90;;;;;;5051676;28;20037;-51
2023/01/24 05:48:09;;;;;;;2.90;2.20;;;5.00;99.90;;;;;;5051192;28;20033;-51
2023/01/24 05:50:36;;;;;;;3.08;2.05;;;5.10;99.90;;;;;;5051256;28;20087;-52
2023/01/24 05:53:04;;;;;;;3.65;2.30;;;4.90;99.90;;;;;;5051216;28;20037;-51
2023/01/24 05:55:30;;;;;;;2.45;1.65;;;4.90;99.90;;;;;;5051586;28;20036;-50
2023/01/24 05:57:59;;;;;;;3.83;3.17;;;4.70;99.90;;;;;;5051153;28;20036;-50
2023/01/24 06:00:25;;;;;;;4.03;2.67;;;4.80;99.90;;;;;;5051371;28;20044;-51
2023/01/24 06:02:52;;;;;;;4.07;2.45;;;;;;;;;;5051109;28;20120;-50
2023/01/24 06:05:18;;;;;;;4.38;2.78;;;4.70;99.90;;;;;;5051117;28;20457;-52
2023/01/24 06:07:43;;;;;;;5.05;2.45;;;4.60;99.90;;;;;;5051267;28;20120;-50
2023/01/24 06:10:10;;;;;;;3.65;2.25;;;4.50;99.90;;;;;;5051120;28;20033;-51
2023/01/24 06:12:35;;;;;;;4.35;2.83;;;4.60;99.90;;;;;;5051062;28;20029;-51
2023/01/24 06:15:01;;;;;;;4.15;2.05;;;4.70;99.90;;;;;;5050795;28;20140;-52
2023/01/24 06:17:27;;;;;;;4.10;2.40;;;4.70;99.90;;;;;;5051033;28;20095;-53
2023/01/24 06:19:53;;;;;;;3.28;2.38;;;4.70;99.90;;;;;;5052773;28;20075;-51
2023/01/24 06:22:53;;;;;;;4.38;2.75;;;4.60;99.90;;;;;;5051252;28;20041;-52
2023/01/24 06:25:23;;;;;;;5.32;3.22;;;4.60;99.90;;;;;;5011074;28;20053;-51
2023/01/24 06:27:49;;;;;;;4.03;2.20;;;4.60;99.90;;;;;;5011181;28;20034;-51
2023/01/24 06:30:16;;;;;;;5.70;2.67;;;4.50;99.90;;;;;;5010433;28;20033;-50
2023/01/24 06:33:24;;;;;;;5.10;2.60;;;4.50;99.90;;;;;;4994660;28;20093;-51
2023/01/24 06:36:17;;;;;;;8.48;4.00;;;4.60;99.90;;;;;;4952487;29;20066;-51
2023/01/24 06:38:43;;;;;;;3.83;2.35;;;4.70;99.90;;;;;;4952775;29;20467;-52
2023/01/24 06:41:16;;;;;;;3.97;1.88;;;4.50;99.90;;;;;;4936788;29;20041;-49
2023/01/24 06:43:43;;;;;;;6.10;2.55;;;4.40;99.90;;;;;;4918488;29;20046;-52
2023/01/24 06:46:10;;;;;;;4.70;2.78;;;4.40;99.90;;;;;;4951860;29;20107;-50
2023/01/24 06:48:36;;;;;;;6.25;3.53;;;4.40;99.90;;;;;;4952247;29;20213;-50
2023/01/24 06:51:01;;;;;;;3.85;1.80;;;4.40;99.90;;;;;;4936145;29;20479;-50
2023/01/24 06:53:27;;;;;;;4.78;2.80;;;4.20;99.90;;;;;;4917023;29;20396;-51
2023/01/24 06:55:53;;;;;;;2.88;1.70;;;4.30;99.90;;;;;;4932293;29;20043;-50
2023/01/24 06:58:19;;;;;;;5.20;2.22;;;4.20;99.90;;;;;;4933911;29;20044;-52
2023/01/24 07:00:45;;;;;;;5.13;3.08;;;;;;;;;;4937112;29;20039;-55
2023/01/24 07:03:11;;;;;;;8.25;4.00;;;;;;;;;;4937911;29;20106;-57
2023/01/24 07:05:38;;;;;;;7.20;3.10;;;;;;;;;;4953582;29;20129;-51
2023/01/24 07:08:05;;;;;;;12.55;5.32;;;;;;;;;;4953160;29;20039;-52
2023/01/24 07:10:31;;;;;;;6.30;4.85;;;4.10;99.90;;;;;;4952439;29;20054;-51
2023/01/24 07:12:57;;;;;;;5.82;3.97;;;4.20;99.90;;;;;;4982814;28;20071;-51
2023/01/24 07:15:23;;;;;;;6.53;3.88;;;4.20;99.90;;;;;;5009612;28;20581;-50
2023/01/24 07:17:49;;;;;;;5.10;3.30;;;4.40;99.90;;;;;;4985584;28;20038;-51
2023/01/24 07:20:15;;;;;;;3.55;2.47;;;4.40;99.90;;;;;;5009566;28;20034;-51
2023/01/24 07:22:42;;;;;;;3.58;1.90;;;4.10;99.90;;;;;;5010579;28;20057;-50
2023/01/24 07:25:16;;;;;;;2.65;1.77;;;4.10;99.90;;;;;;5010451;28;20046;-51
2023/01/24 07:27:43;;;;;;;3.70;2.03;;;;;;;;;;5010756;28;20030;-50
2023/01/24 07:30:11;;;;;;;3.17;1.98;;;3.90;99.90;;;;;;5019529;28;20037;-52
2023/01/24 07:32:36;;;;;;;3.95;2.40;;;4.10;99.90;;;;;;5050309;28;20068;-52
2023/01/24 07:35:04;;;;;;;3.90;2.92;;;4.10;99.90;;;;;;5052684;28;20029;-50
2023/01/24 07:37:31;;;;;;;5.55;3.90;;;4.30;99.90;;;;;;5049922;28;20033;-50
2023/01/24 07:39:57;;;;;;;4.47;3.00;;;4.30;99.90;;;;;;5057461;28;20029;-51
2023/01/24 07:42:23;;;;;;;4.10;3.17;;;4.30;99.90;;;;;;5055759;28;20021;-51
2023/01/24 07:44:49;;;;;;;2.45;1.90;;;4.30;99.90;;;;;;5061740;28;20041;-50
2023/01/24 07:47:14;;;;;;;7.30;5.00;;;4.20;99.90;;;;;;5056976;28;20055;-50
2023/01/24 07:49:40;;;;;;;7.70;3.83;;;4.30;99.90;;;;;;5038541;28;20041;-53
2023/01/24 07:52:06;;;;;;;5.55;3.75;;;4.20;99.90;;;;;;5053764;28;20029;-50
2023/01/24 07:54:32;;;;;;;4.93;3.10;;;4.40;99.90;;;;;;5051118;28;20044;-53
2023/01/24 07:56:58;;;;;;;4.75;3.08;;;4.30;99.90;;;;;;5032394;28;20033;-49
2023/01/24 07:59:23;;;;;;;5.55;4.03;;;4.30;99.90;;;;;;5051367;28;20048;-51
2023/01/24 08:01:49;;;;;;;6.22;3.90;;;4.40;99.90;;;;;;5055179;28;20052;-52
2023/01/24 08:04:15;;;;;;;4.35;2.72;;;4.20;99.90;;;;;;5056325;28;20033;-52
2023/01/24 08:07:16;;;;;;;4.97;3.05;;;4.20;99.90;;;;;;5054742;28;20423;-52
2023/01/24 08:09:29;;;;;;;4.47;3.30;;;4.20;99.90;;;;;;5051980;28;20082;-50
2023/01/24 08:11:56;;;;;;;3.63;2.65;;;4.30;99.90;;;;;;5055176;28;20025;-50
2023/01/24 08:14:22;;;;;;;7.65;4.10;;;4.30;99.90;;;;;;5054898;28;20469;-51
2023/01/24 08:16:51;;;;;;;3.20;2.55;;;4.40;99.90;;;;;;5036525;28;20037;-51
2023/01/24 08:19:16;;;;;;;4.28;3.13;;;4.40;99.90;;;;;;5050836;28;20029;-51
2023/01/24 08:21:42;;;;;;;5.30;2.88;;;4.20;99.90;;;;;;5054519;28;20461;-51
2023/01/24 08:24:08;;;;;;;3.88;2.95;;;4.20;99.90;;;;;;5055160;28;20039;-50
2023/01/24 08:26:34;;;;;;;3.15;1.75;;;4.20;99.90;;;;;;5053463;28;20025;-51
2023/01/24 08:29:00;;;;;;;3.83;2.53;;;4.00;99.90;;;;;;5069858;28;20436;-51
2023/01/24 08:31:25;;;;;;;3.10;1.88;;;4.00;99.90;;;;;;5036441;28;20041;-50
2023/01/24 08:33:51;;;;;;;5.35;2.25;;;4.10;99.90;;;;;;5056004;28;20445;-51
2023/01/24 08:36:19;;;;;;;6.00;3.25;;;4.10;99.90;;;;;;5054561;28;20112;-50
2023/01/24 08:38:45;;;;;;;4.40;2.30;;;;;;;;;;5053318;28;20530;-50
2023/01/24 08:41:11;;;;;;;4.70;2.90;;;3.80;99.90;;;;;;5055262;28;20025;-51
2023/01/24 08:43:37;;;;;;;4.93;3.20;;;4.10;99.90;;;;;;5035875;28;20090;-51
2023/01/24 08:46:03;;;;;;;3.63;2.88;;;3.90;99.90;;;;;;5053243;28;20032;-51
2023/01/24 08:48:29;;;;;;;3.50;2.38;;;3.90;99.90;;;;;;5052580;28;20428;-50
2023/01/24 08:50:55;;;;;;;7.05;4.35;;;3.80;99.90;;;;;;5052677;28;20064;-50
2023/01/24 08:53:21;;;;;;;4.78;2.95;;;4.00;99.90;;;;;;5053337;28;20056;-51
2023/01/24 08:55:50;;;;;;;4.72;2.97;;;3.90;99.90;;;;;;5036088;28;20045;-51
2023/01/24 08:58:16;;;;;;;6.80;4.18;;;3.80;99.90;;;;;;5054764;28;20096;-50
2023/01/24 09:00:42;;;;;;;3.83;2.25;;;3.90;99.90;;;;;;5035984;28;20089;-50
2023/01/24 09:03:16;;;;;;;12.50;8.05;;;3.80;99.90;;;;;;5053601;28;20064;-50
2023/01/24 09:05:42;;;;;;;7.55;5.60;;;4.00;99.90;;;;;;5054769;28;20051;-49
2023/01/24 09:08:08;;;;;;;8.65;6.03;;;4.00;99.90;;;;;;5052650;28;20052;-50
2023/01/24 09:10:34;;;;;;;7.80;5.47;;;;;;;;;;5035738;28;20041;-50
2023/01/24 09:13:01;;;;;;;10.95;9.15;;;4.50;99.90;;;;;;5054280;28;20174;-53
2023/01/24 09:15:26;;;;;;;9.30;7.68;;;4.50;99.90;;;;;;5054252;28;20025;-52
2023/01/24 09:17:52;;;;;;;6.60;4.65;;;4.50;99.90;;;;;;5054125;28;20028;-52
2023/01/24 09:20:18;;;;;;;6.47;4.63;;;4.50;99.90;;;;;;5052374;28;20040;-51
2023/01/24 09:22:44;;;;;;;6.15;3.88;;;4.50;99.90;;;;;;5054222;28;20025;-51
2023/01/24 09:25:10;;;;;;;5.45;4.03;;;4.50;99.90;;;;;;5054422;28;20029;-52
2023/01/24 09:27:36;;;;;;;6.70;5.15;;;4.60;99.90;;;;;;5050859;28;20039;-51
2023/01/24 09:30:04;;;;;;;3.78;3.10;;;4.60;99.90;;;;;;5054186;28;20380;-50
2023/01/24 09:32:30;;;;;;;6.25;4.38;;;4.50;99.90;;;;;;5051746;28;20049;-52
2023/01/24 09:34:56;;;;;;;6.07;4.65;;;4.50;99.90;;;;;;5054166;28;20401;-52
2023/01/24 09:37:22;;;;;;;6.10;4.10;;;4.60;99.90;;;;;;5053989;28;20380;-51
2023/01/24 09:39:48;;;;;;;5.45;4.22;;;4.70;99.90;;;;;;5053579;28;20021;-52
2023/01/24 09:42:32;;;;;;;5.72;3.90;;;4.60;99.90;;;;;;5054345;28;20039;-52
2023/01/24 09:45:07;;;;;;;6.43;4.88;;;4.60;99.90;;;;;;5053576;28;20037;-51
2023/01/24 09:47:49;;;;;;;4.53;3.70;;;4.70;99.90;;;;;;5053048;28;20021;-52
2023/01/24 09:50:16;;;;;;;;;;;4.80;99.90;;;;;;5054238;28;20060;-50
2023/01/24 09:52:49;;;;;;;4.75;3.40;;;4.80;99.90;;;;;;5053257;28;20394;-50
2023/01/24 09:55:19;;;;;;;6.40;4.32;;;4.60;99.90;;;;;;5035226;28;20032;-52
2023/01/24 09:58:00;;;;;;;7.45;4.65;;;4.60;99.90;;;;;;5051731;28;20065;-53
2023/01/24 10:00:29;;;;;;;6.75;4.97;;;4.90;99.90;;;;;;5053512;28;20021;-51
2023/01/24 10:02:58;;;;;;;4.97;3.80;;;4.80;99.90;;;;;;5053358;28;20099;-52
2023/01/24 10:05:32;;;;;;;7.13;5.07;;;4.90;99.90;;;;;;5051664;28;20025;-51
2023/01/24 10:08:24;;;;;;;7.13;5.75;;;4.90;99.90;;;;;;5053914;28;20028;-51
2023/01/24 10:11:15;;;;;;;7.10;5.22;;;4.80;99.90;;;;;;5053272;28;20021;-53
2023/01/24 10:14:02;;;;;;;6.40;4.70;;;5.00;99.90;;;;;;5051651;28;20043;-53
2023/01/24 10:16:52;;;;;;;3.65;2.67;;;5.10;99.90;;;;;;5053539;28;20048;-53
2023/01/24 10:19:41;;;;;;;7.40;4.38;;;4.90;99.90;;;;;;5053207;28;20075;-52
2023/01/24 10:22:24;;;;;;;8.75;6.88;;;4.90;99.90;;;;;;5043872;28;20116;-52
2023/01/24 10:24:56;;;;;;;;;;;4.90;99.90;;;;;;5047102;28;20033;-50
2023/01/24 10:27:34;;;;;;;11.57;6.85;;;5.10;99.90;;;;;;5053180;28;20291;-51
2023/01/24 10:30:13;;;;;;;13.20;9.02;;;5.10;99.90;;;;;;5053291;28;20104;-53
2023/01/24 10:32:43;;;;;;;13.52;9.55;;;5.10;99.90;;;;;;5063089;28;20501;-50
2023/01/24 10:35:21;;;;;;;9.65;7.32;;;5.20;99.90;;;;;;5046056;28;20049;-52
2023/01/24 10:37:55;;;;;;;11.88;5.88;;;5.40;99.90;;;;;;5023984;28;20497;-53
2023/01/24 10:40:24;;;;;;;8.98;4.97;;;5.40;99.90;;;;;;5032915;28;20113;-50
2023/01/24 10:42:50;;;;;;;10.38;6.15;;;5.50;99.90;;;;;;5033381;28;20045;-53
2023/01/24 10:45:35;;;;;;;8.30;5.68;;;5.30;99.90;;;;;;5033149;28;20493;-51
2023/01/24 10:48:06;;;;;;;8.45;6.18;;;5.50;99.90;;;;;;5033020;28;20026;-53
2023/01/24 10:50:40;;;;;;;6.20;4.88;;;5.60;99.90;;;;;;5032880;28;20461;-52
2023/01/24 10:53:13;;;;;;;8.07;4.97;;;5.60;99.90;;;;;;5042405;28;20472;-52
2023/01/24 10:55:39;;;;;;;7.20;5.35;;;5.50;99.90;;;;;;5052618;28;20452;-63
2023/01/24 10:58:27;;;;;;;7.35;5.35;;;5.30;99.90;;;;;;5053110;28;20075;-50
2023/01/24 11:01:24;;;;;;;9.40;6.28;;;5.20;99.90;;;;;;5053269;28;20119;-59
2023/01/24 11:03:52;;;;;;;7.07;4.70;;;5.50;99.90;;;;;;5051848;28;20075;-49
2023/01/24 11:06:23;;;;;;;8.48;4.95;;;5.60;99.90;;;;;;5053273;28;20067;-49
2023/01/24 11:09:02;;;;;;;7.53;4.78;;;5.50;99.90;;;;;;5052678;28;20469;-52
2023/01/24 11:11:31;;;;;;;6.55;4.25;;;5.40;99.90;;;;;;5050565;28;20032;-48
2023/01/24 11:14:00;;;;;;;9.25;5.35;;;5.40;99.90;;;;;;5052873;28;20029;-48
2023/01/24 11:16:42;;;;;;;6.72;4.70;;;5.50;99.90;;;;;;5035410;28;20515;-52
2023/01/24 11:19:29;;;;;;;7.50;4.68;;;5.50;99.90;;;;;;5057132;28;20119;-50
2023/01/24 11:21:57;;;;;;;7.80;5.35;;;5.20;99.90;;;;;;5056528;28;20496;-49
2023/01/24 11:24:24;;;;;;;8.32;5.38;;;5.20;99.90;;;;;;5054596;28;20037;-49
2023/01/24 11:27:13;;;;;;;10.35;6.68;;;5.40;99.90;;;;;;5037731;28;20123;-50
2023/01/24 11:29:39;;;;;;;7.97;4.57;;;5.60;99.90;;;;;;5056211;28;20070;-47
2023/01/24 11:32:17;;;;;;;7.95;6.05;;;5.60;99.90;;;;;;5054278;28;20401;-50
2023/01/24 11:34:56;;;;;;;10.25;6.65;;;5.60;99.90;;;;;;5056544;28;20457;-53
2023/01/24 11:37:56;;;;;;;9.30;5.88;;;5.70;99.90;;;;;;5056320;28;20033;-52
2023/01/24 11:40:49;;;;;;;9.52;6.50;;;5.60;99.90;;;;;;5056122;28;20060;-48
2023/01/24 11:43:26;;;;;;;10.20;6.93;;;5.90;99.90;;;;;;5055848;28;20033;-49
2023/01/24 11:46:11;;;;;;;9.98;7.65;;;6.00;99.90;;;;;;5056000;28;20033;-47
2023/01/24 11:48:55;;;;;;;7.75;5.53;;;;;;;;;;5055941;28;20029;-50
2023/01/24 11:51:48;;;;;;;9.90;7.43;;;6.20;99.90;;;;;;5070719;28;20120;-48
2023/01/24 11:54:26;;;;;;;9.43;6.30;;;6.50;99.90;;;;;;5056183;28;20021;-47
2023/01/24 11:56:57;;;;;;;6.85;5.07;;;6.40;99.90;;;;;;5053544;28;20087;-48
2023/01/24 11:59:29;;;;;;;8.68;5.93;;;6.00;99.90;;;;;;5056109;28;20054;-48
2023/01/24 12:02:16;;;;;;;10.43;5.68;;;5.90;99.90;;;;;;5056071;28;20035;-45
2023/01/24 12:05:06;;;;;;;7.05;4.68;;;5.90;99.90;;;;;;5055857;28;20077;-51
2023/01/24 12:07:38;;;;;;;9.10;6.85;;;6.00;99.90;;;;;;5053665;28;20448;-49
2023/01/24 12:10:22;;;;;;;6.65;4.32;;;6.10;99.90;;;;;;5053080;28;20033;-48
2023/01/24 12:13:09;;;;;;;7.10;4.50;;;6.00;99.90;;;;;;5050612;28;20044;-48
2023/01/24 12:15:50;;;;;;;7.82;4.68;;;5.80;99.90;;;;;;5039867;28;20025;-49
2023/01/24 12:18:19;;;;;;;11.88;6.68;;;5.90;99.90;;;;;;5044368;28;20034;-46
2023/01/24 12:20:58;;;;;;;11.77;7.95;;;5.90;99.90;;;;;;5035544;28;20051;-49
2023/01/24 12:23:45;;;;;;;7.30;4.65;;;5.90;99.90;;;;;;5035318;28;20033;-47
2023/01/24 12:26:18;;;;;;;6.80;4.18;;;5.70;99.90;;;;;;5035395;28;20048;-50
2023/01/24 12:28:56;;;;;;;7.93;5.40;;;5.50;99.90;;;;;;5034631;28;20033;-46
2023/01/24 12:31:32;;;;;;;7.07;4.68;;;5.70;99.90;;;;;;5036227;28;20041;-49
2023/01/24 12:34:12;;;;;;;11.23;6.10;;;5.40;99.90;;;;;;5049680;28;20029;-44
2023/01/24 12:36:54;;;;;;;2.40;2.13;;;5.40;99.90;;;;;;5052678;28;20499;-54
2023/01/24 12:39:20;;;;;;;;;;;5.20;99.90;;;;;;5038050;28;20564;-51
2023/01/24 12:41:57;;;;;;;4.75;3.55;;;5.20;99.90;;;;;;5049820;28;19909;-51
2023/01/24 12:44:37;;;;;;;4.88;3.03;;;5.20;99.90;;;;;;5033360;28;20049;-49
2023/01/24 12:47:18;;;;;;;5.80;3.45;;;5.00;99.90;;;;;;5035043;28;20061;-50
2023/01/24 12:49:57;;;;;;;6.20;3.50;;;4.90;99.90;;;;;;5034750;28;20037;-52
2023/01/24 12:52:39;;;;;;;4.70;3.47;;;4.90;99.90;;;;;;5033116;28;20045;-50
2023/01/24 12:55:13;;;;;;;6.35;3.70;;;4.90;99.90;;;;;;5049556;28;20374;-52
2023/01/24 12:57:51;;;;;;;6.85;4.90;;;5.00;99.90;;;;;;5032865;28;20041;-51
2023/01/24 13:00:19;;;;;;;8.88;5.60;;;5.10;99.90;;;;;;5036881;28;20052;-50
2023/01/24 13:03:04;;;;;;;8.02;5.53;;;5.20;99.90;;;;;;5019430;28;20443;-48
2023/01/24 13:05:30;;;;;;;5.63;4.05;;;5.50;99.90;;;;;;5054292;28;20044;-51
2023/01/24 13:08:15;;;;;;;11.00;7.10;;;5.50;99.90;;;;;;5054399;28;20029;-50
2023/01/24 13:11:04;;;;;;;10.18;6.13;;;5.40;99.90;;;;;;5053611;28;20083;-50
2023/01/24 13:13:40;;;;;;;8.20;4.68;;;5.50;99.90;;;;;;5010609;28;20034;-48
2023/01/24 13:16:41;;;;;;;5.30;3.70;;;5.40;99.90;;;;;;4980082;28;20497;-47
2023/01/24 13:19:28;;;;;;;5.32;2.78;;;5.30;99.90;;;;;;4954137;29;20043;-45
2023/01/24 13:22:14;;;;;;;3.03;2.33;;;5.20;99.90;;;;;;4952725;28;20054;-49
2023/01/24 13:25:00;;;;;;;6.38;4.25;;;5.10;99.90;;;;;;4953767;29;20549;-51
2023/01/24 13:27:39;;;;;;;7.40;4.28;;;5.20;99.90;;;;;;4954056;29;20055;-50
2023/01/24 13:30:23;;;;;;;9.13;5.72;;;5.30;99.90;;;;;;4953981;29;20038;-47
2023/01/24 13:32:51;;;;;;;5.47;3.58;;;5.10;99.90;;;;;;4953577;29;20043;-51
2023/01/24 13:35:22;;;;;;;7.55;4.45;;;5.00;99.90;;;;;;4953902;29;20550;-48
2023/01/24 13:38:00;;;;;;;5.93;4.70;;;5.10;99.90;;;;;;4953486;29;20049;-51
2023/01/24 13:40:30;;;;;;;10.32;7.25;;;5.10;99.90;;;;;;4953020;28;20507;-48
2023/01/24 13:42:57;;;;;;;7.25;5.15;;;5.30;99.90;;;;;;4953618;29;20042;-51
2023/01/24 13:45:24;;;;;;;10.43;7.05;;;5.20;99.90;;;;;;4953711;29;20452;-52
2023/01/24 13:47:50;;;;;;;4.65;3.08;;;5.30;99.90;;;;;;4953470;29;20043;-51
2023/01/24 13:50:21;;;;;;;5.68;4.05;;;5.20;99.90;;;;;;4988572;28;20080;-53
2023/01/24 13:52:54;;;;;;;7.32;5.10;;;5.10;99.90;;;;;;4995255;28;20508;-52
2023/01/24 13:55:22;;;;;;;4.35;3.42;;;5.40;99.90;;;;;;5026357;28;20507;-51
2023/01/24 13:58:17;;;;;;;5.47;3.88;;;5.30;99.90;;;;;;5053344;28;20155;-52